createdAt,value
2022-11-29T00:00:41.422Z,6.00
2022-11-29T00:03:08.178Z,5.90
2022-11-29T00:05:35.214Z,5.90
2022-11-29T00:08:01.969Z,5.90
2022-11-29T00:10:28.804Z,5.80
2022-11-29T00:12:55.485Z,5.90
2022-11-29T00:15:23.479Z,5.80
2022-11-29T00:17:50.215Z,5.70
2022-11-29T00:20:17.129Z,5.70
2022-11-29T00:22:43.810Z,5.60
2022-11-29T00:25:10.563Z,5.60
2022-11-29T00:27:37.224Z,5.40
2022-11-29T00:30:04.857Z,5.50
2022-11-29T00:32:32.896Z,5.50
2022-11-29T00:34:59.940Z,5.50
2022-11-29T00:37:28.164Z,5.50
2022-11-29T00:39:54.905Z,5.50
2022-11-29T00:42:21.605Z,5.40
2022-11-29T00:44:48.357Z,5.40
2022-11-29T00:47:15.060Z,5.40
2022-11-29T00:49:43.098Z,5.40
2022-11-29T00:52:09.938Z,5.40
2022-11-29T00:54:36.723Z,5.40
2022-11-29T00:57:03.523Z,5.30
2022-11-29T00:59:30.193Z,5.40
2022-11-29T01:01:57.021Z,5.40
2022-11-29T01:04:23.756Z,5.50
2022-11-29T01:06:52.811Z,5.40
2022-11-29T01:09:19.791Z,5.40
2022-11-29T01:11:48.860Z,5.40
2022-11-29T01:14:15.394Z,5.30
2022-11-29T01:16:42.331Z,5.30
2022-11-29T01:19:09.195Z,5.40
2022-11-29T01:21:36.018Z,5.40
2022-11-29T01:24:04.433Z,5.40
2022-11-29T01:26:31.356Z,5.40
2022-11-29T01:28:59.152Z,5.40
2022-11-29T01:31:27.687Z,5.40
2022-11-29T01:33:54.865Z,5.40
2022-11-29T01:36:22.194Z,5.40
2022-11-29T01:38:48.911Z,5.40
2022-11-29T01:41:19.112Z,5.30
2022-11-29T01:43:58.496Z,5.40
2022-11-29T01:46:26.257Z,5.30
2022-11-29T01:48:56.511Z,5.40
2022-11-29T01:51:24.108Z,5.40
2022-11-29T01:53:50.821Z,5.50
2022-11-29T01:56:18.985Z,5.50
2022-11-29T01:58:45.946Z,5.50
2022-11-29T02:01:14.265Z,5.50
2022-11-29T02:03:41.137Z,5.50
2022-11-29T02:06:08.352Z,5.60
2022-11-29T02:08:38.596Z,5.60
2022-11-29T02:11:30.610Z,5.60
2022-11-29T02:14:08.047Z,5.70
2022-11-29T02:16:42.972Z,5.60
2022-11-29T02:19:26.897Z,5.60
2022-11-29T02:22:00.216Z,5.60
2022-11-29T02:24:52.954Z,5.60
2022-11-29T02:28:08.158Z,5.60
2022-11-29T02:30:53.409Z,5.60
2022-11-29T02:33:41.471Z,5.60
2022-11-29T02:36:38.316Z,5.60
2022-11-29T02:39:24.555Z,5.60
2022-11-29T02:42:21.088Z,5.60
2022-11-29T02:45:07.870Z,5.60
2022-11-29T02:47:51.431Z,5.70
2022-11-29T02:50:28.979Z,5.70
2022-11-29T02:53:03.910Z,5.70
2022-11-29T02:55:37.480Z,5.70
2022-11-29T02:58:16.799Z,5.70
2022-11-29T03:00:51.350Z,5.70
2022-11-29T03:03:24.030Z,5.70
2022-11-29T03:05:57.449Z,5.70
2022-11-29T03:08:31.807Z,5.60
2022-11-29T03:11:05.656Z,5.70
2022-11-29T03:13:48.116Z,5.70
2022-11-29T03:16:24.983Z,5.70
2022-11-29T03:19:03.818Z,5.70
2022-11-29T03:21:48.554Z,5.70
2022-11-29T03:24:20.013Z,5.80
2022-11-29T03:26:51.465Z,5.80
2022-11-29T03:29:28.301Z,5.80
2022-11-29T03:32:02.292Z,5.80
2022-11-29T03:34:40.233Z,5.80
2022-11-29T03:37:15.976Z,5.80
2022-11-29T03:39:51.072Z,5.80
2022-11-29T03:42:23.481Z,5.80
2022-11-29T03:44:56.159Z,5.80
2022-11-29T03:47:28.006Z,5.80
2022-11-29T03:49:58.879Z,5.80
2022-11-29T03:52:33.058Z,5.80
2022-11-29T03:55:11.195Z,5.80
2022-11-29T03:57:47.295Z,5.80
2022-11-29T04:00:15.624Z,5.70
2022-11-29T04:03:15.992Z,5.70
2022-11-29T04:06:11.234Z,5.70
2022-11-29T04:09:03.684Z,5.60
2022-11-29T04:12:15.152Z,5.60
2022-11-29T04:15:11.530Z,5.60
2022-11-29T04:18:15.883Z,5.60
2022-11-29T04:21:31.223Z,5.60
2022-11-29T04:24:24.121Z,5.60
2022-11-29T04:27:34.045Z,5.60
2022-11-29T04:30:16.073Z,5.60
2022-11-29T04:33:11.822Z,5.70
2022-11-29T04:36:26.624Z,5.60
2022-11-29T04:39:12.349Z,5.60
2022-11-29T04:41:59.804Z,5.50
2022-11-29T04:44:46.011Z,5.50
2022-11-29T04:47:44.034Z,5.50
2022-11-29T04:50:24.251Z,5.60
2022-11-29T04:53:09.971Z,5.50
2022-11-29T04:55:45.570Z,5.60
2022-11-29T04:58:21.493Z,5.60
2022-11-29T05:00:56.981Z,5.50
2022-11-29T05:03:34.256Z,5.60
2022-11-29T05:06:09.972Z,5.60
2022-11-29T05:08:45.823Z,5.50
2022-11-29T05:11:25.048Z,5.50
2022-11-29T05:14:01.838Z,5.50
2022-11-29T05:16:54.370Z,5.50
2022-11-29T05:19:44.712Z,5.50
2022-11-29T05:22:24.569Z,5.50
2022-11-29T05:25:00.856Z,5.40
2022-11-29T05:27:41.074Z,5.40
2022-11-29T05:30:12.682Z,5.40
2022-11-29T05:32:47.908Z,5.40
2022-11-29T05:35:52.719Z,5.40
2022-11-29T05:38:35.622Z,5.40
2022-11-29T05:41:15.960Z,5.40
2022-11-29T05:43:54.119Z,5.30
2022-11-29T05:46:27.991Z,5.30
2022-11-29T05:49:00.978Z,5.40
2022-11-29T05:51:40.025Z,5.40
2022-11-29T05:54:16.699Z,5.40
2022-11-29T05:56:56.620Z,5.40
2022-11-29T05:59:27.340Z,5.40
2022-11-29T06:02:03.949Z,5.30
2022-11-29T06:04:41.225Z,5.40
2022-11-29T06:07:15.974Z,5.30
2022-11-29T06:09:47.399Z,5.30
2022-11-29T06:12:21.288Z,5.40
2022-11-29T06:15:29.665Z,5.40
2022-11-29T06:18:09.772Z,5.40
2022-11-29T06:20:56.929Z,5.30
2022-11-29T06:23:38.542Z,5.30
2022-11-29T06:26:19.192Z,5.20
2022-11-29T06:28:57.554Z,5.20
2022-11-29T06:31:28.309Z,5.20
2022-11-29T06:34:05.094Z,5.20
2022-11-29T06:36:37.420Z,5.20
2022-11-29T06:39:05.132Z,5.30
2022-11-29T06:41:32.321Z,5.20
2022-11-29T06:43:59.591Z,5.20
2022-11-29T06:46:35.630Z,5.20
2022-11-29T06:49:11.558Z,5.10
2022-11-29T06:51:47.328Z,5.20
2022-11-29T06:54:25.256Z,5.20
2022-11-29T06:56:59.230Z,5.10
2022-11-29T06:59:38.485Z,5.10
2022-11-29T07:02:27.866Z,5.10
2022-11-29T07:05:06.877Z,5.10
2022-11-29T07:07:34.039Z,5.10
2022-11-29T07:10:04.407Z,5.10
2022-11-29T07:12:31.639Z,4.90
2022-11-29T07:14:58.964Z,5.00
2022-11-29T07:17:29.963Z,5.00
2022-11-29T07:20:06.734Z,5.00
2022-11-29T07:22:47.443Z,5.00
2022-11-29T07:25:23.864Z,4.90
2022-11-29T07:28:00.450Z,4.90
2022-11-29T07:30:33.959Z,5.00
2022-11-29T07:33:11.604Z,5.00
2022-11-29T07:35:49.509Z,5.00
2022-11-29T07:38:24.451Z,5.10
2022-11-29T07:40:58.989Z,5.00
2022-11-29T07:43:35.635Z,5.00
2022-11-29T07:46:02.424Z,5.00
2022-11-29T07:48:29.149Z,4.90
2022-11-29T07:50:57.490Z,5.00
2022-11-29T07:53:24.817Z,5.00
2022-11-29T07:55:51.736Z,4.90
2022-11-29T07:58:18.947Z,4.90
2022-11-29T08:00:46.308Z,5.00
2022-11-29T08:03:13.075Z,5.00
2022-11-29T08:05:40.322Z,5.00
2022-11-29T08:08:08.497Z,5.10
2022-11-29T08:10:35.327Z,5.00
2022-11-29T08:13:02.199Z,5.00
2022-11-29T08:15:28.920Z,4.90
2022-11-29T08:17:55.659Z,5.00
2022-11-29T08:20:22.513Z,5.00
2022-11-29T08:22:56.501Z,5.00
2022-11-29T08:25:24.832Z,5.10
2022-11-29T08:27:52.203Z,5.00
2022-11-29T08:30:19.220Z,5.10
2022-11-29T08:32:51.069Z,5.10
2022-11-29T08:35:19.969Z,5.10
2022-11-29T08:37:46.914Z,5.10
2022-11-29T08:40:14.484Z,5.10
2022-11-29T08:42:42.536Z,5.20
2022-11-29T08:45:10.228Z,5.20
2022-11-29T08:47:37.411Z,5.30
2022-11-29T08:50:06.891Z,5.20
2022-11-29T08:52:35.436Z,5.20
2022-11-29T08:55:03.394Z,5.10
2022-11-29T08:57:39.766Z,5.20
2022-11-29T09:00:10.779Z,5.20
2022-11-29T09:02:37.776Z,5.30
2022-11-29T09:05:05.414Z,5.40
2022-11-29T09:07:32.196Z,5.40
2022-11-29T09:09:58.961Z,5.40
2022-11-29T09:12:25.708Z,5.30
2022-11-29T09:14:52.427Z,5.50
2022-11-29T09:17:20.499Z,5.30
2022-11-29T09:19:47.254Z,5.50
2022-11-29T09:22:13.969Z,5.50
2022-11-29T09:24:40.947Z,5.70
2022-11-29T09:27:07.710Z,5.40
2022-11-29T09:29:34.408Z,5.30
2022-11-29T09:32:01.128Z,5.30
2022-11-29T09:34:29.255Z,5.60
2022-11-29T09:36:56.071Z,5.60
2022-11-29T09:39:22.797Z,5.70
2022-11-29T09:42:16.427Z,6.00
2022-11-29T09:44:54.204Z,6.10
2022-11-29T09:47:50.681Z,5.80
2022-11-29T09:50:27.785Z,6.20
2022-11-29T09:53:07.473Z,6.00
2022-11-29T09:55:45.986Z,6.00
2022-11-29T09:58:16.415Z,6.20
2022-11-29T10:00:48.249Z,6.30
2022-11-29T10:03:22.164Z,6.30
2022-11-29T10:05:53.328Z,6.10
2022-11-29T10:08:27.376Z,6.10
2022-11-29T10:11:02.156Z,6.20
2022-11-29T10:13:31.711Z,6.20
2022-11-29T10:16:04.443Z,6.20
2022-11-29T10:18:34.568Z,6.30
2022-11-29T10:21:11.250Z,6.10
2022-11-29T10:23:43.677Z,6.30
2022-11-29T10:26:11.748Z,6.40
2022-11-29T10:28:42.531Z,6.30
2022-11-29T10:31:20.310Z,6.40
2022-11-29T10:33:47.952Z,6.40
2022-11-29T10:36:25.959Z,6.60
2022-11-29T10:38:56.793Z,6.50
2022-11-29T10:41:23.730Z,6.40
2022-11-29T10:43:51.844Z,6.40
2022-11-29T10:46:27.038Z,6.40
2022-11-29T10:48:54.160Z,6.40
2022-11-29T10:51:22.249Z,6.30
2022-11-29T10:53:51.993Z,6.60
2022-11-29T10:56:22.560Z,6.60
2022-11-29T10:58:56.659Z,6.80
2022-11-29T11:01:24.159Z,6.90
2022-11-29T11:03:53.384Z,6.60
2022-11-29T11:06:24.197Z,6.40
2022-11-29T11:08:53.027Z,6.40
2022-11-29T11:11:26.915Z,6.60
2022-11-29T11:14:02.576Z,6.70
2022-11-29T11:16:32.877Z,6.60
2022-11-29T11:19:27.199Z,6.60
2022-11-29T11:21:55.669Z,6.60
2022-11-29T11:24:24.759Z,6.50
2022-11-29T11:26:51.600Z,6.40
2022-11-29T11:29:22.014Z,6.40
2022-11-29T11:31:53.403Z,6.50
2022-11-29T11:34:29.738Z,6.70
2022-11-29T11:37:24.205Z,6.80
2022-11-29T11:39:52.563Z,6.60
2022-11-29T11:42:22.904Z,6.70
2022-11-29T11:44:51.006Z,6.50
2022-11-29T11:47:20.303Z,6.60
2022-11-29T11:49:49.383Z,6.70
2022-11-29T11:52:22.082Z,6.90
2022-11-29T11:54:53.322Z,6.80
2022-11-29T11:57:21.765Z,6.90
2022-11-29T11:59:49.581Z,6.90
2022-11-29T12:02:27.687Z,6.50
2022-11-29T12:04:56.630Z,6.60
2022-11-29T12:07:59.811Z,6.70
2022-11-29T12:10:22.315Z,6.70
2022-11-29T12:12:50.101Z,6.70
2022-11-29T12:15:20.185Z,6.70
2022-11-29T12:17:50.322Z,7.00
2022-11-29T12:20:24.431Z,6.80
2022-11-29T12:23:06.032Z,6.70
2022-11-29T12:25:39.141Z,6.70
2022-11-29T12:28:10.363Z,6.80
2022-11-29T12:30:38.356Z,6.80
2022-11-29T12:33:19.315Z,6.80
2022-11-29T12:35:59.987Z,7.00
2022-11-29T12:38:50.203Z,6.70
2022-11-29T12:41:29.216Z,6.80
2022-11-29T12:44:04.138Z,6.90
2022-11-29T12:46:32.450Z,6.80
2022-11-29T12:49:05.062Z,6.90
2022-11-29T12:51:39.380Z,6.90
2022-11-29T12:54:29.110Z,7.00
2022-11-29T12:57:06.199Z,7.00
2022-11-29T12:59:45.036Z,7.00
2022-11-29T13:02:30.789Z,6.90
2022-11-29T13:05:02.949Z,6.70
2022-11-29T13:07:39.827Z,6.80
2022-11-29T13:10:33.130Z,6.80
2022-11-29T13:13:07.033Z,6.90
2022-11-29T13:15:39.897Z,6.80
2022-11-29T13:18:14.210Z,6.80
2022-11-29T13:20:47.680Z,6.80
2022-11-29T13:23:38.989Z,6.90
2022-11-29T13:26:13.463Z,7.00
2022-11-29T13:28:41.121Z,7.00
2022-11-29T13:31:13.032Z,6.80
2022-11-29T13:33:48.101Z,6.80
2022-11-29T13:36:21.214Z,6.80
2022-11-29T13:38:59.168Z,6.70
2022-11-29T13:41:34.580Z,6.90
2022-11-29T13:44:09.297Z,6.60
2022-11-29T13:46:43.509Z,6.70
2022-11-29T13:49:20.873Z,6.70
2022-11-29T13:51:47.705Z,6.40
2022-11-29T13:54:27.850Z,6.40
2022-11-29T13:57:04.177Z,6.40
2022-11-29T13:59:32.936Z,6.30
2022-11-29T14:01:59.867Z,6.20
2022-11-29T14:04:31.268Z,6.20
2022-11-29T14:07:07.302Z,6.20
2022-11-29T14:09:39.584Z,6.20
2022-11-29T14:12:33.991Z,6.20
2022-11-29T14:15:04.340Z,6.20
2022-11-29T14:17:46.817Z,6.20
2022-11-29T14:20:51.986Z,6.20
2022-11-29T14:23:35.775Z,6.30
2022-11-29T14:26:35.761Z,6.20
2022-11-29T14:29:41.455Z,6.20
2022-11-29T14:32:22.084Z,6.30
2022-11-29T14:34:52.705Z,6.30
2022-11-29T14:37:47.173Z,6.20
2022-11-29T14:40:26.283Z,6.20
2022-11-29T14:42:53.405Z,6.20
2022-11-29T14:45:28.689Z,6.00
2022-11-29T14:47:56.278Z,6.00
2022-11-29T14:50:32.818Z,6.00
2022-11-29T14:52:59.901Z,5.90
2022-11-29T14:55:32.648Z,6.00
2022-11-29T14:58:21.001Z,6.00
2022-11-29T15:01:06.601Z,6.00
2022-11-29T15:03:42.436Z,6.00
2022-11-29T15:06:14.502Z,6.10
2022-11-29T15:08:50.687Z,6.10
2022-11-29T15:11:26.341Z,6.10
2022-11-29T15:13:59.436Z,6.10
2022-11-29T15:16:51.670Z,6.00
2022-11-29T15:19:51.049Z,6.10
2022-11-29T15:22:20.472Z,6.00
2022-11-29T15:24:52.377Z,6.10
2022-11-29T15:27:19.969Z,6.00
2022-11-29T15:29:46.779Z,6.10
2022-11-29T15:32:19.674Z,6.00
2022-11-29T15:34:48.967Z,6.00
2022-11-29T15:37:22.264Z,5.90
2022-11-29T15:40:01.868Z,5.80
2022-11-29T15:42:37.333Z,5.80
2022-11-29T15:45:26.573Z,5.70
2022-11-29T15:47:55.773Z,5.60
2022-11-29T15:50:28.771Z,5.60
2022-11-29T15:52:59.048Z,5.50
2022-11-29T15:55:26.836Z,5.40
2022-11-29T15:57:57.159Z,5.50
2022-11-29T16:00:24.355Z,5.40
2022-11-29T16:02:53.297Z,5.40
2022-11-29T16:05:24.961Z,5.50
2022-11-29T16:07:55.601Z,5.40
2022-11-29T16:10:25.018Z,5.40
2022-11-29T16:12:56.484Z,5.30
2022-11-29T16:15:27.868Z,5.40
2022-11-29T16:17:54.692Z,5.30
2022-11-29T16:20:25.404Z,5.30
2022-11-29T16:23:10.324Z,5.30
2022-11-29T16:25:50.556Z,5.40
2022-11-29T16:28:18.403Z,5.40
2022-11-29T16:30:45.141Z,5.50
2022-11-29T16:33:20.085Z,5.50
2022-11-29T16:35:48.607Z,5.60
2022-11-29T16:38:19.947Z,5.50
2022-11-29T16:41:04.935Z,5.60
2022-11-29T16:43:49.929Z,5.50
2022-11-29T16:46:29.297Z,5.60
2022-11-29T16:48:57.768Z,5.60
2022-11-29T16:51:31.788Z,5.60
2022-11-29T16:54:19.533Z,5.50
2022-11-29T16:56:46.290Z,5.60
2022-11-29T16:59:25.741Z,5.60
2022-11-29T17:01:55.002Z,5.60
2022-11-29T17:04:23.796Z,5.70
2022-11-29T17:06:53.714Z,5.60
2022-11-29T17:09:22.132Z,5.60
2022-11-29T17:11:48.913Z,5.70
2022-11-29T17:14:18.304Z,5.70
2022-11-29T17:16:45.088Z,5.60
2022-11-29T17:19:12.638Z,5.70
2022-11-29T17:21:39.699Z,5.70
2022-11-29T17:24:11.109Z,5.70
2022-11-29T17:26:37.846Z,5.60
2022-11-29T17:29:04.568Z,5.70
2022-11-29T17:31:31.384Z,5.70
2022-11-29T17:33:59.446Z,5.60
2022-11-29T17:36:26.303Z,5.70
2022-11-29T17:38:53.043Z,5.70
2022-11-29T17:41:22.555Z,5.70
2022-11-29T17:43:49.628Z,5.70
2022-11-29T17:46:17.680Z,5.70
2022-11-29T17:48:44.692Z,5.70
2022-11-29T17:51:29.215Z,5.70
2022-11-29T17:53:58.657Z,5.80
2022-11-29T17:56:27.112Z,5.80
2022-11-29T17:58:55.401Z,5.80
2022-11-29T18:01:24.569Z,5.70
2022-11-29T18:03:53.105Z,5.70
2022-11-29T18:06:21.287Z,5.60
2022-11-29T18:08:49.584Z,5.60
2022-11-29T18:11:18.487Z,5.60
2022-11-29T18:13:47.134Z,5.60
2022-11-29T18:16:16.157Z,5.60
2022-11-29T18:18:42.790Z,5.60
2022-11-29T18:21:10.700Z,5.60
2022-11-29T18:23:39.520Z,5.50
2022-11-29T18:26:08.074Z,5.50
2022-11-29T18:28:37.252Z,5.60
2022-11-29T18:31:08.632Z,5.50
2022-11-29T18:33:35.733Z,5.60
2022-11-29T18:36:03.675Z,5.60
2022-11-29T18:38:32.995Z,5.60
2022-11-29T18:41:05.376Z,5.60
2022-11-29T18:43:32.063Z,5.60
2022-11-29T18:45:58.757Z,5.50
2022-11-29T18:48:28.940Z,5.60
2022-11-29T18:51:00.577Z,5.40
2022-11-29T18:53:27.260Z,5.20
2022-11-29T18:56:02.134Z,5.20
2022-11-29T18:58:28.887Z,5.10
2022-11-29T19:01:03.196Z,5.10
2022-11-29T19:03:33.615Z,4.90
2022-11-29T19:06:00.315Z,5.00
2022-11-29T19:08:27.039Z,4.90
2022-11-29T19:10:53.750Z,4.80
2022-11-29T19:13:20.409Z,4.80
2022-11-29T19:15:51.773Z,4.80
2022-11-29T19:18:19.666Z,4.80
2022-11-29T19:20:50.056Z,4.70
2022-11-29T19:23:16.771Z,4.70
2022-11-29T19:25:43.469Z,4.70
2022-11-29T19:28:14.023Z,4.70
2022-11-29T19:30:41.262Z,4.70
2022-11-29T19:33:08.133Z,4.80
2022-11-29T19:35:35.061Z,4.70
2022-11-29T19:38:03.205Z,4.70
2022-11-29T19:40:29.936Z,4.70
2022-11-29T19:42:56.602Z,4.70
2022-11-29T19:45:23.308Z,4.70
2022-11-29T19:47:50.007Z,4.80
2022-11-29T19:50:16.701Z,4.70
2022-11-29T19:52:43.365Z,4.80
2022-11-29T19:55:11.446Z,4.80
2022-11-29T19:57:38.210Z,4.80
2022-11-29T20:00:06.520Z,4.80
2022-11-29T20:02:33.341Z,4.70
2022-11-29T20:05:00.109Z,4.80
2022-11-29T20:07:26.849Z,4.70
2022-11-29T20:09:53.745Z,4.80
2022-11-29T20:12:21.810Z,4.80
2022-11-29T20:14:48.519Z,4.80
2022-11-29T20:17:15.256Z,4.80
2022-11-29T20:19:41.956Z,4.90
2022-11-29T20:22:08.655Z,4.80
2022-11-29T20:24:41.269Z,4.90
2022-11-29T20:27:11.762Z,4.80
2022-11-29T20:29:39.813Z,4.90
2022-11-29T20:32:06.498Z,4.90
2022-11-29T20:34:33.597Z,4.90
2022-11-29T20:37:26.300Z,4.90
2022-11-29T20:39:57.456Z,5.00
2022-11-29T20:42:50.323Z,4.90
2022-11-29T20:45:18.924Z,5.00
2022-11-29T20:47:50.505Z,5.00
2022-11-29T20:50:23.192Z,5.00
2022-11-29T20:53:02.483Z,5.00
2022-11-29T20:55:29.436Z,4.90
2022-11-29T20:57:56.209Z,4.90
2022-11-29T21:00:24.715Z,4.90
2022-11-29T21:02:51.483Z,4.90
2022-11-29T21:05:18.182Z,4.90
2022-11-29T21:07:44.930Z,4.90
2022-11-29T21:10:12.278Z,5.00
2022-11-29T21:12:39.549Z,4.90
2022-11-29T21:15:07.789Z,4.90
2022-11-29T21:17:36.502Z,4.90
2022-11-29T21:20:03.667Z,4.90
2022-11-29T21:22:39.176Z,5.00
2022-11-29T21:25:14.820Z,5.00
2022-11-29T21:27:41.992Z,5.00
2022-11-29T21:30:17.696Z,5.00
2022-11-29T21:32:46.956Z,5.00
2022-11-29T21:35:14.373Z,5.00
2022-11-29T21:37:42.116Z,5.00
2022-11-29T21:40:10.339Z,5.10
2022-11-29T21:42:37.184Z,5.00
2022-11-29T21:45:04.852Z,5.00
2022-11-29T21:47:31.830Z,5.00
2022-11-29T21:49:59.876Z,5.00
2022-11-29T21:52:26.595Z,5.00
2022-11-29T21:54:53.341Z,5.00
2022-11-29T21:57:20.217Z,5.00
2022-11-29T21:59:46.942Z,5.00
2022-11-29T22:02:14.123Z,4.90
2022-11-29T22:04:40.960Z,5.00
2022-11-29T22:07:08.984Z,5.00
2022-11-29T22:09:35.656Z,5.00
2022-11-29T22:12:19.468Z,5.00
2022-11-29T22:14:49.047Z,5.00
2022-11-29T22:17:15.755Z,5.00
2022-11-29T22:19:42.450Z,4.90
2022-11-29T22:22:10.485Z,4.90
2022-11-29T22:24:37.887Z,5.00
2022-11-29T22:27:04.784Z,5.00
2022-11-29T22:29:31.453Z,5.00
2022-11-29T22:31:58.152Z,5.00
2022-11-29T22:34:27.397Z,5.00
2022-11-29T22:36:54.499Z,5.00
2022-11-29T22:39:22.691Z,5.00
2022-11-29T22:41:53.902Z,5.00
2022-11-29T22:44:21.693Z,5.00
2022-11-29T22:46:48.601Z,5.00
2022-11-29T22:49:15.405Z,5.00
2022-11-29T22:51:42.160Z,5.00
2022-11-29T22:54:10.615Z,5.00
2022-11-29T22:56:40.186Z,5.00
2022-11-29T22:59:07.475Z,5.00
2022-11-29T23:01:37.156Z,5.00
2022-11-29T23:04:05.705Z,5.00
2022-11-29T23:06:33.926Z,5.00
2022-11-29T23:09:06.853Z,5.00
2022-11-29T23:11:33.795Z,5.00
2022-11-29T23:14:01.836Z,5.00
2022-11-29T23:16:29.974Z,5.00
2022-11-29T23:18:58.292Z,5.00
2022-11-29T23:21:27.432Z,5.00
2022-11-29T23:23:56.628Z,5.00
2022-11-29T23:26:26.396Z,5.00
2022-11-29T23:28:53.829Z,5.00
2022-11-29T23:31:23.591Z,5.00
2022-11-29T23:33:50.625Z,5.00
2022-11-29T23:36:17.527Z,5.00
2022-11-29T23:38:44.579Z,5.00
2022-11-29T23:41:11.641Z,5.10
2022-11-29T23:43:40.141Z,5.10
2022-11-29T23:46:07.832Z,5.10
2022-11-29T23:48:36.218Z,5.10
2022-11-29T23:51:02.952Z,5.20
2022-11-29T23:53:29.679Z,5.20
2022-11-29T23:55:58.267Z,5.20
2022-11-29T23:58:25.448Z,5.20
